createdAt,value
2022-10-28T00:00:09.418Z,97988.03
2022-10-28T00:01:16.225Z,97985.19
2022-10-28T00:02:18.198Z,97992.69
2022-10-28T00:03:20.074Z,97984.41
2022-10-28T00:04:21.981Z,97986.22
2022-10-28T00:05:23.787Z,97989.19
2022-10-28T00:06:30.962Z,97986.56
2022-10-28T00:07:32.736Z,97987.41
2022-10-28T00:08:34.705Z,97991.78
2022-10-28T00:09:36.509Z,97983.31
2022-10-28T00:10:38.384Z,97990.19
2022-10-28T00:11:40.157Z,97982.69
2022-10-28T00:12:41.977Z,97978.28
2022-10-28T00:13:44.578Z,97981.53
2022-10-28T00:14:46.430Z,97985.19
2022-10-28T00:15:48.151Z,97981.78
2022-10-28T00:16:49.949Z,97986.66
2022-10-28T00:17:52.094Z,97985.66
2022-10-28T00:18:54.473Z,97988.66
2022-10-28T00:19:56.287Z,97989.38
2022-10-28T00:21:02.555Z,97989.72
2022-10-28T00:22:04.317Z,97986.31
2022-10-28T00:23:06.121Z,97989.38
2022-10-28T00:24:08.784Z,97985.59
2022-10-28T00:25:11.001Z,97985.03
2022-10-28T00:26:14.217Z,97980.06
2022-10-28T00:27:15.983Z,97988.88
2022-10-28T00:28:17.712Z,97987.53
2022-10-28T00:29:20.045Z,97982.28
2022-10-28T00:30:22.005Z,97991.34
2022-10-28T00:31:24.971Z,97983.59
2022-10-28T00:32:29.888Z,97983.94
2022-10-28T00:33:31.807Z,97983.75
2022-10-28T00:34:33.554Z,97982.41
2022-10-28T00:35:35.373Z,97986.38
2022-10-28T00:36:38.167Z,97984.84
2022-10-28T00:37:40.029Z,97983.31
2022-10-28T00:38:42.607Z,97987.38
2022-10-28T00:39:44.459Z,97986.38
2022-10-28T00:40:46.279Z,97980.34
2022-10-28T00:41:49.730Z,97986.56
2022-10-28T00:42:52.135Z,97986.56
2022-10-28T00:43:58.243Z,97987.75
2022-10-28T00:45:01.165Z,97988.19
2022-10-28T00:46:03.268Z,97983.94
2022-10-28T00:47:06.211Z,97980.34
2022-10-28T00:48:08.533Z,97985.22
2022-10-28T00:49:14.783Z,97989.81
2022-10-28T00:50:39.656Z,97992.25
2022-10-28T00:51:42.007Z,97989.19
2022-10-28T00:52:46.298Z,97985.94
2022-10-28T00:53:48.622Z,97985.94
2022-10-28T00:54:51.875Z,97980.53
2022-10-28T00:55:54.841Z,97986.28
2022-10-28T00:56:57.809Z,97987.94
2022-10-28T00:57:59.680Z,97980.25
2022-10-28T00:59:03.143Z,97978.66
2022-10-28T01:00:06.391Z,97978.44
2022-10-28T01:01:08.255Z,97976.38
2022-10-28T01:02:10.409Z,97975.75
2022-10-28T01:03:12.246Z,97976.13
2022-10-28T01:04:14.125Z,97975.13
2022-10-28T01:05:23.433Z,97976.31
2022-10-28T01:06:27.019Z,97970.06
2022-10-28T01:07:29.024Z,97978.75
2022-10-28T01:08:30.940Z,97964.66
2022-10-28T01:09:32.714Z,97973.94
2022-10-28T01:10:41.653Z,97972.50
2022-10-28T01:11:52.395Z,97966.47
2022-10-28T01:13:11.664Z,97968.19
2022-10-28T01:14:26.759Z,97970.59
2022-10-28T01:15:31.372Z,97965.00
2022-10-28T01:16:42.662Z,97959.16
2022-10-28T01:17:50.602Z,97964.00
2022-10-28T01:19:11.144Z,97969.06
2022-10-28T01:20:16.019Z,97957.00
2022-10-28T01:21:20.757Z,97965.47
2022-10-28T01:22:26.019Z,97968.44
2022-10-28T01:23:27.800Z,97961.41
2022-10-28T01:24:52.493Z,97966.63
2022-10-28T01:26:13.615Z,97958.97
2022-10-28T01:27:41.444Z,97960.59
2022-10-28T01:28:49.089Z,97958.34
2022-10-28T01:30:11.761Z,97955.28
2022-10-28T01:31:22.697Z,97958.34
2022-10-28T01:32:27.421Z,97953.22
2022-10-28T01:33:33.599Z,97963.59
2022-10-28T01:34:44.380Z,97960.56
2022-10-28T01:36:04.354Z,97964.13
2022-10-28T01:37:18.122Z,97962.97
2022-10-28T01:38:35.276Z,97959.53
2022-10-28T01:39:43.245Z,97958.19
2022-10-28T01:40:58.319Z,97956.75
2022-10-28T01:42:18.699Z,97957.31
2022-10-28T01:43:28.706Z,97958.91
2022-10-28T01:44:59.610Z,97953.97
2022-10-28T01:46:04.728Z,97955.56
2022-10-28T01:47:15.433Z,97960.34
2022-10-28T01:48:19.813Z,97963.97
2022-10-28T01:49:29.145Z,97966.75
2022-10-28T01:50:43.184Z,97961.19
2022-10-28T01:51:50.384Z,97968.00
2022-10-28T01:52:57.663Z,97963.59
2022-10-28T01:54:01.471Z,97954.59
2022-10-28T01:55:10.879Z,97955.75
2022-10-28T01:56:16.318Z,97960.78
2022-10-28T01:57:18.574Z,97959.81
2022-10-28T01:58:24.018Z,97958.19
2022-10-28T01:59:28.179Z,97965.22
2022-10-28T02:00:30.530Z,97963.59
2022-10-28T02:01:33.237Z,97959.38
2022-10-28T02:02:37.045Z,97967.56
2022-10-28T02:03:39.255Z,97960.44
2022-10-28T02:04:41.000Z,97962.44
2022-10-28T02:05:50.276Z,97958.47
2022-10-28T02:06:53.883Z,97956.84
2022-10-28T02:07:59.456Z,97957.81
2022-10-28T02:09:27.349Z,97956.84
2022-10-28T02:10:34.260Z,97957.03
2022-10-28T02:11:44.864Z,97965.66
2022-10-28T02:12:48.687Z,97957.19
2022-10-28T02:13:59.668Z,97958.84
2022-10-28T02:15:24.214Z,97958.56
2022-10-28T02:16:43.301Z,97961.34
2022-10-28T02:17:53.125Z,97959.56
2022-10-28T02:18:54.984Z,97961.88
2022-10-28T02:20:05.951Z,97957.28
2022-10-28T02:21:17.246Z,97965.13
2022-10-28T02:22:23.099Z,97957.28
2022-10-28T02:23:34.239Z,97959.91
2022-10-28T02:25:08.491Z,97960.91
2022-10-28T02:26:10.268Z,97952.88
2022-10-28T02:27:14.791Z,97959.72
2022-10-28T02:28:19.036Z,97960.53
2022-10-28T02:29:36.386Z,97953.94
2022-10-28T02:30:54.387Z,97948.09
2022-10-28T02:31:57.955Z,97949.09
2022-10-28T02:33:01.556Z,97948.09
2022-10-28T02:34:07.217Z,97951.50
2022-10-28T02:35:13.330Z,97951.97
2022-10-28T02:36:17.083Z,97954.59
2022-10-28T02:37:23.697Z,97946.13
2022-10-28T02:38:27.944Z,97947.13
2022-10-28T02:39:33.235Z,97942.88
2022-10-28T02:40:36.653Z,97946.13
2022-10-28T02:41:53.665Z,97950.88
2022-10-28T02:42:58.063Z,97951.34
2022-10-28T02:44:02.445Z,97950.19
2022-10-28T02:45:16.647Z,97958.22
2022-10-28T02:46:19.520Z,97954.41
2022-10-28T02:47:24.425Z,97954.59
2022-10-28T02:48:32.635Z,97955.03
2022-10-28T02:49:37.600Z,97952.59
2022-10-28T02:50:42.667Z,97948.56
2022-10-28T02:51:52.686Z,97957.75
2022-10-28T02:52:58.047Z,97950.47
2022-10-28T02:54:03.897Z,97947.84
2022-10-28T02:55:06.260Z,97945.56
2022-10-28T02:56:09.469Z,97944.78
2022-10-28T02:57:15.205Z,97947.94
2022-10-28T02:58:17.013Z,97943.34
2022-10-28T02:59:18.994Z,97940.53
2022-10-28T03:00:22.672Z,97953.50
2022-10-28T03:01:24.657Z,97950.28
2022-10-28T03:02:27.292Z,97949.63
2022-10-28T03:03:29.052Z,97945.03
2022-10-28T03:04:30.970Z,97946.69
2022-10-28T03:05:32.820Z,97952.34
2022-10-28T03:06:34.635Z,97949.19
2022-10-28T03:07:36.475Z,97952.88
2022-10-28T03:08:38.288Z,97954.13
2022-10-28T03:09:40.113Z,97954.13
2022-10-28T03:10:41.899Z,97949.09
2022-10-28T03:11:43.739Z,97951.50
2022-10-28T03:12:45.644Z,97946.75
2022-10-28T03:13:47.524Z,97948.22
2022-10-28T03:14:49.301Z,97944.59
2022-10-28T03:15:51.196Z,97950.44
2022-10-28T03:16:52.995Z,97947.38
2022-10-28T03:17:55.257Z,97947.13
2022-10-28T03:18:57.530Z,97940.88
2022-10-28T03:19:59.419Z,97941.69
2022-10-28T03:21:01.322Z,97947.28
2022-10-28T03:22:03.135Z,97942.25
2022-10-28T03:23:04.832Z,97939.00
2022-10-28T03:24:06.754Z,97940.34
2022-10-28T03:25:08.612Z,97939.72
2022-10-28T03:26:10.358Z,97943.78
2022-10-28T03:27:12.101Z,97939.16
2022-10-28T03:28:13.953Z,97943.41
2022-10-28T03:29:15.744Z,97949.00
2022-10-28T03:30:18.950Z,97946.84
2022-10-28T03:31:20.729Z,97939.00
2022-10-28T03:33:29.189Z,97945.56
2022-10-28T03:34:30.985Z,97943.34
2022-10-28T03:35:32.901Z,97938.13
2022-10-28T03:36:34.632Z,97942.72
2022-10-28T03:37:36.485Z,97951.97
2022-10-28T03:38:38.253Z,97936.31
2022-10-28T03:39:40.049Z,97940.34
2022-10-28T03:40:41.820Z,97934.78
2022-10-28T03:41:43.708Z,97933.53
2022-10-28T03:42:46.199Z,97943.53
2022-10-28T03:43:48.289Z,97937.50
2022-10-28T03:44:50.095Z,97940.91
2022-10-28T03:45:51.861Z,97940.72
2022-10-28T03:46:53.683Z,97944.94
2022-10-28T03:47:55.764Z,97937.75
2022-10-28T03:48:57.862Z,97948.66
2022-10-28T03:49:59.664Z,97944.59
2022-10-28T03:51:01.537Z,97935.13
2022-10-28T03:52:04.344Z,97940.34
2022-10-28T03:53:06.147Z,97937.75
2022-10-28T03:54:07.852Z,97944.16
2022-10-28T03:55:09.756Z,97941.72
2022-10-28T03:56:12.113Z,97935.06
2022-10-28T03:57:13.886Z,97943.69
2022-10-28T03:58:15.655Z,97938.22
2022-10-28T03:59:19.387Z,97937.38
2022-10-28T04:00:22.203Z,97938.00
2022-10-28T04:01:24.085Z,97937.50
2022-10-28T04:02:27.103Z,97938.75
2022-10-28T04:03:28.993Z,97943.97
2022-10-28T04:04:30.998Z,97940.97
2022-10-28T04:05:32.790Z,97934.78
2022-10-28T04:06:34.660Z,97938.75
2022-10-28T04:07:36.445Z,97936.47
2022-10-28T04:08:38.227Z,97943.06
2022-10-28T04:09:40.068Z,97932.97
2022-10-28T04:10:47.020Z,97937.03
2022-10-28T04:11:49.866Z,97939.91
2022-10-28T04:12:51.947Z,97930.44
2022-10-28T04:13:53.849Z,97930.28
2022-10-28T04:14:55.714Z,97927.47
2022-10-28T04:15:58.036Z,97929.91
2022-10-28T04:16:59.834Z,97932.59
2022-10-28T04:18:01.616Z,97933.25
2022-10-28T04:19:03.607Z,97930.44
2022-10-28T04:20:05.619Z,97923.59
2022-10-28T04:21:07.465Z,97934.88
2022-10-28T04:22:10.079Z,97937.50
2022-10-28T04:23:15.863Z,97940.91
2022-10-28T04:24:17.716Z,97929.28
2022-10-28T04:25:19.481Z,97927.66
2022-10-28T04:26:21.282Z,97928.28
2022-10-28T04:27:23.137Z,97926.31
2022-10-28T04:28:25.034Z,97934.50
2022-10-28T04:29:26.780Z,97925.41
2022-10-28T04:30:28.670Z,97915.31
2022-10-28T04:31:30.441Z,97927.38
2022-10-28T04:32:32.396Z,97929.19
2022-10-28T04:33:34.230Z,97932.97
2022-10-28T04:34:36.034Z,97936.56
2022-10-28T04:35:39.463Z,97936.22
2022-10-28T04:36:41.217Z,97945.84
2022-10-28T04:37:43.092Z,97934.97
2022-10-28T04:38:44.953Z,97935.78
2022-10-28T04:39:46.740Z,97931.00
2022-10-28T04:40:49.417Z,97944.88
2022-10-28T04:41:51.189Z,97938.56
2022-10-28T04:42:53.210Z,97940.91
2022-10-28T04:43:56.543Z,97938.34
2022-10-28T04:44:58.430Z,97933.13
2022-10-28T04:46:06.186Z,97933.97
2022-10-28T04:47:08.169Z,97935.94
2022-10-28T04:48:10.987Z,97938.72
2022-10-28T04:49:12.890Z,97941.34
2022-10-28T04:50:14.819Z,97940.34
2022-10-28T04:51:16.576Z,97937.94
2022-10-28T04:52:18.442Z,97937.72
2022-10-28T04:53:20.317Z,97938.72
2022-10-28T04:54:22.239Z,97942.53
2022-10-28T04:55:23.960Z,97937.28
2022-10-28T04:56:25.677Z,97938.34
2022-10-28T04:57:27.431Z,97929.53
2022-10-28T04:58:29.271Z,97936.03
2022-10-28T04:59:31.056Z,97932.41
2022-10-28T05:00:32.956Z,97932.25
2022-10-28T05:01:34.951Z,97933.06
2022-10-28T05:02:36.871Z,97937.28
2022-10-28T05:03:38.823Z,97932.41
2022-10-28T05:04:40.609Z,97929.38
2022-10-28T05:05:42.386Z,97926.31
2022-10-28T05:06:44.327Z,97933.34
2022-10-28T05:07:46.746Z,97933.69
2022-10-28T05:08:48.632Z,97932.88
2022-10-28T05:09:50.453Z,97926.38
2022-10-28T05:10:52.256Z,97936.19
2022-10-28T05:11:54.606Z,97929.53
2022-10-28T05:12:56.421Z,97930.34
2022-10-28T05:13:58.311Z,97929.72
2022-10-28T05:15:00.179Z,97927.09
2022-10-28T05:16:01.972Z,97932.66
2022-10-28T05:17:03.828Z,97928.78
2022-10-28T05:18:05.660Z,97936.00
2022-10-28T05:19:07.493Z,97933.56
2022-10-28T05:20:10.211Z,97935.53
2022-10-28T05:21:12.048Z,97928.06
2022-10-28T05:22:13.864Z,97934.91
2022-10-28T05:23:15.699Z,97936.69
2022-10-28T05:24:17.478Z,97928.59
2022-10-28T05:25:20.200Z,97932.47
2022-10-28T05:26:21.988Z,97933.13
2022-10-28T05:27:23.789Z,97937.81
2022-10-28T05:28:25.600Z,97934.72
2022-10-28T05:29:32.277Z,97932.47
2022-10-28T05:30:35.125Z,97934.25
2022-10-28T05:31:36.992Z,97933.91
2022-10-28T05:32:38.754Z,97931.66
2022-10-28T05:33:40.532Z,97930.69
2022-10-28T05:34:42.457Z,97931.84
2022-10-28T05:35:44.241Z,97933.63
2022-10-28T05:36:46.005Z,97933.81
2022-10-28T05:37:47.843Z,97935.25
2022-10-28T05:38:50.081Z,97935.44
2022-10-28T05:39:52.959Z,97931.03
2022-10-28T05:40:54.744Z,97927.34
2022-10-28T05:41:56.520Z,97934.72
2022-10-28T05:42:58.755Z,97930.28
2022-10-28T05:44:00.566Z,97938.75
2022-10-28T05:45:02.381Z,97924.25
2022-10-28T05:46:05.273Z,97931.72
2022-10-28T05:47:07.081Z,97932.56
2022-10-28T05:48:09.105Z,97938.59
2022-10-28T05:49:10.911Z,97935.50
2022-10-28T05:50:14.194Z,97938.13
2022-10-28T05:51:16.012Z,97936.94
2022-10-28T05:52:17.818Z,97934.97
2022-10-28T05:53:19.598Z,97937.78
2022-10-28T05:54:21.503Z,97938.75
2022-10-28T05:55:24.774Z,97941.91
2022-10-28T05:56:26.545Z,97938.81
2022-10-28T05:57:28.421Z,97942.44
2022-10-28T05:58:30.290Z,97931.53
2022-10-28T05:59:32.076Z,97946.03
2022-10-28T06:00:34.023Z,97946.03
2022-10-28T06:01:35.868Z,97941.97
2022-10-28T06:02:37.711Z,97938.34
2022-10-28T06:03:39.460Z,97938.19
2022-10-28T06:04:42.459Z,97932.81
2022-10-28T06:05:45.597Z,97942.06
2022-10-28T06:06:47.443Z,97934.53
2022-10-28T06:07:49.217Z,97935.81
2022-10-28T06:08:51.030Z,97939.69
2022-10-28T06:09:53.135Z,97939.31
2022-10-28T06:10:54.104Z,97936.16
2022-10-28T06:11:55.931Z,97944.00
2022-10-28T06:12:58.194Z,97938.78
2022-10-28T06:14:00.320Z,97941.22
2022-10-28T06:15:02.761Z,97933.38
2022-10-28T06:16:04.949Z,97940.41
2022-10-28T06:17:06.711Z,97937.47
2022-10-28T06:18:08.645Z,97941.50
2022-10-28T06:19:10.462Z,97942.94
2022-10-28T06:20:12.253Z,97935.75
2022-10-28T06:21:14.077Z,97946.56
2022-10-28T06:22:15.910Z,97946.19
2022-10-28T06:23:17.704Z,97937.19
2022-10-28T06:24:19.476Z,97951.69
2022-10-28T06:25:22.378Z,97949.09
2022-10-28T06:26:24.295Z,97945.47
2022-10-28T06:27:26.167Z,97949.91
2022-10-28T06:28:28.362Z,97947.91
2022-10-28T06:29:31.013Z,97954.75
2022-10-28T06:30:32.781Z,97951.16
2022-10-28T06:31:37.528Z,97952.59
2022-10-28T06:32:39.284Z,97950.16
2022-10-28T06:33:41.095Z,97949.34
2022-10-28T06:34:42.828Z,97951.78
2022-10-28T06:35:44.594Z,97952.75
2022-10-28T06:36:46.867Z,97953.13
2022-10-28T06:37:52.510Z,97945.84
2022-10-28T06:38:54.453Z,97946.66
2022-10-28T06:39:57.543Z,97950.88
2022-10-28T06:40:59.448Z,97949.53
2022-10-28T06:42:01.297Z,97954.56
2022-10-28T06:43:04.490Z,97952.75
2022-10-28T06:44:06.349Z,97963.03
2022-10-28T06:45:08.421Z,97952.25
2022-10-28T06:46:10.308Z,97953.22
2022-10-28T06:47:13.740Z,97955.66
2022-10-28T06:48:15.528Z,97953.06
2022-10-28T06:49:17.382Z,97949.25
2022-10-28T06:50:19.174Z,97949.44
2022-10-28T06:51:20.947Z,97951.06
2022-10-28T06:52:22.862Z,97948.09
2022-10-28T06:53:25.291Z,97956.59
2022-10-28T06:54:27.171Z,97957.38
2022-10-28T06:55:29.305Z,97957.22
2022-10-28T06:56:31.042Z,97956.03
2022-10-28T06:57:32.850Z,97958.66
2022-10-28T06:58:34.634Z,97961.09
2022-10-28T06:59:36.577Z,97954.69
2022-10-28T07:00:38.519Z,97961.34
2022-10-28T07:01:40.435Z,97959.75
2022-10-28T07:02:45.079Z,97961.53
2022-10-28T07:03:47.891Z,97960.38
2022-10-28T07:04:49.618Z,97954.31
2022-10-28T07:05:52.061Z,97962.78
2022-10-28T07:06:57.456Z,97954.78
2022-10-28T07:07:59.280Z,97955.78
2022-10-28T07:09:01.102Z,97956.75
2022-10-28T07:10:03.907Z,97966.88
2022-10-28T07:11:05.946Z,97957.75
2022-10-28T07:12:08.057Z,97963.97
2022-10-28T07:13:10.009Z,97960.72
2022-10-28T07:14:11.845Z,97961.72
2022-10-28T07:15:14.329Z,97959.28
2022-10-28T07:16:16.142Z,97962.53
2022-10-28T07:17:17.930Z,97962.69
2022-10-28T07:18:20.524Z,97967.13
2022-10-28T07:19:22.782Z,97961.91
2022-10-28T07:20:26.228Z,97967.94
2022-10-28T07:21:30.022Z,97963.50
2022-10-28T07:22:31.842Z,97965.31
2022-10-28T07:23:34.893Z,97964.34
2022-10-28T07:24:36.644Z,97964.13
2022-10-28T07:25:38.700Z,97965.94
2022-10-28T07:26:40.451Z,97962.69
2022-10-28T07:27:42.257Z,97963.88
2022-10-28T07:28:44.356Z,97962.06
2022-10-28T07:29:46.183Z,97953.25
2022-10-28T07:30:47.984Z,97962.69
2022-10-28T07:31:49.928Z,97956.66
2022-10-28T07:32:52.293Z,97959.91
2022-10-28T07:33:54.930Z,97957.75
2022-10-28T07:34:56.721Z,97957.22
2022-10-28T07:35:58.512Z,97955.41
2022-10-28T07:37:00.321Z,97961.00
2022-10-28T07:38:02.146Z,97960.00
2022-10-28T07:39:04.104Z,97963.25
2022-10-28T07:40:06.660Z,97969.72
2022-10-28T07:41:09.445Z,97959.91
2022-10-28T07:42:11.303Z,97962.19
2022-10-28T07:43:13.108Z,97963.44
2022-10-28T07:44:15.514Z,97961.06
2022-10-28T07:45:18.054Z,97964.41
2022-10-28T07:46:19.930Z,97967.75
2022-10-28T07:47:22.692Z,97960.97
2022-10-28T07:48:24.875Z,97965.47
2022-10-28T07:49:26.781Z,97963.94
2022-10-28T07:50:28.561Z,97958.19
2022-10-28T07:51:30.386Z,97968.06
2022-10-28T07:52:32.258Z,97958.50
2022-10-28T07:53:34.749Z,97963.97
2022-10-28T07:54:36.652Z,97959.38
2022-10-28T07:55:38.416Z,97961.81
2022-10-28T07:56:40.126Z,97964.88
2022-10-28T07:57:41.987Z,97966.31
2022-10-28T07:58:44.772Z,97959.53
2022-10-28T07:59:46.572Z,97957.16
2022-10-28T08:00:49.106Z,97958.03
2022-10-28T08:01:51.053Z,97956.84
2022-10-28T08:02:52.867Z,97961.31
2022-10-28T08:03:54.889Z,97953.72
2022-10-28T08:04:57.394Z,97957.78
2022-10-28T08:06:02.811Z,97950.72
2022-10-28T08:07:04.575Z,97955.78
2022-10-28T08:08:06.342Z,97950.19
2022-10-28T08:09:08.072Z,97951.78
2022-10-28T08:10:10.103Z,97958.09
2022-10-28T08:11:22.912Z,97952.28
2022-10-28T08:12:24.988Z,97960.00
2022-10-28T08:13:26.790Z,97957.00
2022-10-28T08:14:28.587Z,97955.00
2022-10-28T08:15:30.535Z,97952.81
2022-10-28T08:16:32.324Z,97961.09
2022-10-28T08:17:34.134Z,97962.53
2022-10-28T08:18:36.775Z,97957.72
2022-10-28T08:19:38.728Z,97953.09
2022-10-28T08:20:40.618Z,97958.56
2022-10-28T08:21:42.417Z,97954.56
2022-10-28T08:22:44.183Z,97959.63
2022-10-28T08:23:48.862Z,97954.56
2022-10-28T08:24:50.646Z,97953.19
2022-10-28T08:25:53.188Z,97957.84
2022-10-28T08:26:54.937Z,97949.00
2022-10-28T08:27:57.935Z,97952.41
2022-10-28T08:29:01.755Z,97949.63
2022-10-28T08:30:03.851Z,97949.81
2022-10-28T08:31:09.533Z,97947.31
2022-10-28T08:32:11.784Z,97952.75
2022-10-28T08:33:13.639Z,97944.53
2022-10-28T08:34:15.436Z,97942.50
2022-10-28T08:35:17.363Z,97947.34
2022-10-28T08:36:19.249Z,97947.16
2022-10-28T08:37:21.113Z,97944.16
2022-10-28T08:38:23.023Z,97949.81
2022-10-28T08:39:24.765Z,97944.19
2022-10-28T08:40:32.753Z,97940.00
2022-10-28T08:41:36.355Z,97951.31
2022-10-28T08:42:44.694Z,97947.47
2022-10-28T08:43:57.905Z,97945.47
2022-10-28T08:45:18.651Z,97948.94
2022-10-28T08:46:26.243Z,97949.78
2022-10-28T08:47:37.336Z,97947.97
2022-10-28T08:48:40.169Z,97943.13
2022-10-28T08:49:44.597Z,97946.19
2022-10-28T08:50:53.519Z,97942.16
2022-10-28T08:51:57.485Z,97943.56
2022-10-28T08:52:59.764Z,97935.09
2022-10-28T08:54:05.405Z,97940.94
2022-10-28T08:55:12.873Z,97936.13
2022-10-28T08:56:22.726Z,97945.03
2022-10-28T08:57:29.098Z,97936.34
2022-10-28T08:58:34.042Z,97944.22
2022-10-28T08:59:40.994Z,97933.94
2022-10-28T09:00:44.889Z,97943.84
2022-10-28T09:01:48.806Z,97945.31
2022-10-28T09:02:54.037Z,97938.63
2022-10-28T09:03:56.110Z,97930.34
2022-10-28T09:05:16.737Z,97931.16
2022-10-28T09:06:18.677Z,97935.59
2022-10-28T09:07:22.175Z,97943.88
2022-10-28T09:08:25.339Z,97925.47
2022-10-28T09:09:27.185Z,97925.66
2022-10-28T09:10:47.682Z,97928.50
2022-10-28T09:11:56.937Z,97929.28
2022-10-28T09:13:05.803Z,97924.03
2022-10-28T09:14:26.204Z,97929.91
2022-10-28T09:15:45.971Z,97933.09
2022-10-28T09:16:48.840Z,97924.38
2022-10-28T09:17:50.766Z,97919.34
2022-10-28T09:18:53.975Z,97930.44
2022-10-28T09:20:11.645Z,97924.75
2022-10-28T09:21:18.652Z,97927.00
2022-10-28T09:22:25.265Z,97916.66
2022-10-28T09:23:31.433Z,97917.63
2022-10-28T09:24:44.885Z,97917.00
2022-10-28T09:26:20.447Z,97917.59
2022-10-28T09:27:30.942Z,97913.94
2022-10-28T09:28:38.544Z,97914.91
2022-10-28T09:29:48.313Z,97919.75
2022-10-28T09:30:50.071Z,97923.38
2022-10-28T09:32:01.567Z,97914.41
2022-10-28T09:33:14.409Z,97923.06
2022-10-28T09:34:34.532Z,97915.94
2022-10-28T09:35:41.995Z,97910.25
2022-10-28T09:36:47.594Z,97913.84
2022-10-28T09:37:52.889Z,97922.28
2022-10-28T09:38:56.515Z,97915.38
2022-10-28T09:40:03.605Z,97917.97
2022-10-28T09:41:05.415Z,97925.63
2022-10-28T09:42:08.900Z,97917.66
2022-10-28T09:43:31.128Z,97918.03
2022-10-28T09:44:41.544Z,97911.44
2022-10-28T09:45:46.446Z,97910.00
2022-10-28T09:46:49.837Z,97913.22
2022-10-28T09:47:58.718Z,97909.47
2022-10-28T09:49:03.680Z,97916.16
2022-10-28T09:50:08.728Z,97915.72
2022-10-28T09:51:20.802Z,97909.34
2022-10-28T09:52:27.459Z,97913.53
2022-10-28T09:53:37.893Z,97908.41
2022-10-28T09:54:42.790Z,97917.44
2022-10-28T09:55:44.622Z,97913.47
2022-10-28T09:56:46.382Z,97916.63
2022-10-28T09:57:50.537Z,97916.31
2022-10-28T09:58:53.323Z,97917.84
2022-10-28T09:59:55.156Z,97911.06
2022-10-28T10:00:57.878Z,97919.59
2022-10-28T10:01:59.770Z,97915.34
2022-10-28T10:03:01.781Z,97921.00
2022-10-28T10:04:12.733Z,97914.66
2022-10-28T10:05:17.248Z,97911.00
2022-10-28T10:06:38.875Z,97911.81
2022-10-28T10:07:49.697Z,97908.28
2022-10-28T10:08:52.524Z,97913.88
2022-10-28T10:09:54.414Z,97909.75
2022-10-28T10:11:01.202Z,97906.78
2022-10-28T10:12:06.548Z,97909.69
2022-10-28T10:13:09.336Z,97910.41
2022-10-28T10:14:12.991Z,97904.06
2022-10-28T10:15:18.833Z,97903.16
2022-10-28T10:16:34.425Z,97909.03
2022-10-28T10:17:40.035Z,97908.81
2022-10-28T10:18:48.611Z,97899.41
2022-10-28T10:20:01.296Z,97902.97
2022-10-28T10:21:04.086Z,97898.28
2022-10-28T10:22:05.934Z,97898.16
2022-10-28T10:23:21.856Z,97901.16
2022-10-28T10:24:23.703Z,97900.25
2022-10-28T10:25:30.099Z,97895.09
2022-10-28T10:26:33.156Z,97899.44
2022-10-28T10:27:35.090Z,97891.22
2022-10-28T10:28:38.928Z,97895.78
2022-10-28T10:29:48.327Z,97893.03
2022-10-28T10:30:52.906Z,97896.59
2022-10-28T10:32:24.219Z,97892.78
2022-10-28T10:33:31.844Z,97885.78
2022-10-28T10:34:33.908Z,97894.16
2022-10-28T10:35:36.919Z,97898.75
2022-10-28T10:36:48.950Z,97892.28
2022-10-28T10:37:51.946Z,97893.22
2022-10-28T10:38:56.270Z,97895.50
2022-10-28T10:39:59.958Z,97891.66
2022-10-28T10:41:02.262Z,97890.72
2022-10-28T10:42:15.583Z,97883.34
2022-10-28T10:43:21.115Z,97887.72
2022-10-28T10:44:22.871Z,97879.75
2022-10-28T10:45:25.994Z,97878.75
2022-10-28T10:46:30.402Z,97878.41
2022-10-28T10:47:32.322Z,97875.97
2022-10-28T10:48:36.686Z,97877.00
2022-10-28T10:49:38.521Z,97879.66
2022-10-28T10:50:41.252Z,97883.13
2022-10-28T10:52:12.380Z,97877.13
2022-10-28T10:53:28.347Z,97874.13
2022-10-28T10:54:31.767Z,97872.53
2022-10-28T10:55:37.894Z,97877.56
2022-10-28T10:56:39.908Z,97875.25
2022-10-28T10:57:46.178Z,97874.13
2022-10-28T10:58:51.815Z,97867.88
2022-10-28T10:59:54.651Z,97861.84
2022-10-28T11:00:58.394Z,97865.97
2022-10-28T11:02:00.451Z,97865.25
2022-10-28T11:03:04.743Z,97864.56
2022-10-28T11:04:07.412Z,97867.59
2022-10-28T11:05:10.466Z,97865.06
2022-10-28T11:06:23.442Z,97865.69
2022-10-28T11:07:26.323Z,97860.53
2022-10-28T11:08:48.336Z,97861.66
2022-10-28T11:09:50.815Z,97858.59
2022-10-28T11:11:04.709Z,97854.75
2022-10-28T11:12:25.886Z,97855.31
2022-10-28T11:13:28.159Z,97854.38
2022-10-28T11:14:31.701Z,97845.94
2022-10-28T11:15:33.755Z,97849.16
2022-10-28T11:16:49.213Z,97854.47
2022-10-28T11:18:01.667Z,97849.16
2022-10-28T11:19:15.483Z,97850.28
2022-10-28T11:20:31.344Z,97850.59
2022-10-28T11:21:33.047Z,97840.03
2022-10-28T11:22:40.641Z,97843.81
2022-10-28T11:23:52.874Z,97839.63
2022-10-28T11:24:55.785Z,97838.88
2022-10-28T11:26:01.696Z,97837.66
2022-10-28T11:27:15.876Z,97835.56
2022-10-28T11:28:34.417Z,97833.66
2022-10-28T11:29:36.252Z,97835.56
2022-10-28T11:30:46.494Z,97837.78
2022-10-28T11:32:00.553Z,97836.00
2022-10-28T11:33:28.675Z,97829.13
2022-10-28T11:34:40.424Z,97820.69
2022-10-28T11:35:45.248Z,97827.66
2022-10-28T11:37:09.991Z,97836.53
2022-10-28T11:38:33.103Z,97839.00
2022-10-28T11:39:37.880Z,97835.34
2022-10-28T11:40:46.778Z,97826.59
2022-10-28T11:41:57.683Z,97833.00
2022-10-28T11:43:02.441Z,97834.88
2022-10-28T11:44:08.830Z,97835.47
2022-10-28T11:45:33.926Z,97829.69
2022-10-28T11:46:36.014Z,97836.66
2022-10-28T11:48:01.099Z,97827.13
2022-10-28T11:49:16.371Z,97825.00
2022-10-28T11:50:32.009Z,97832.94
2022-10-28T11:51:39.922Z,97831.09
2022-10-28T11:52:50.198Z,97833.75
2022-10-28T11:54:14.317Z,97819.13
2022-10-28T11:55:32.353Z,97824.69
2022-10-28T11:56:34.102Z,97814.38
2022-10-28T11:57:45.270Z,97816.25
2022-10-28T11:59:02.133Z,97814.63
2022-10-28T12:00:22.326Z,97817.03
2022-10-28T12:01:36.255Z,97815.47
2022-10-28T12:02:49.406Z,97808.81
2022-10-28T12:04:01.579Z,97810.13
2022-10-28T12:05:22.661Z,97812.53
2022-10-28T12:06:46.011Z,97809.38
2022-10-28T12:07:57.796Z,97807.50
2022-10-28T12:09:11.889Z,97806.72
2022-10-28T12:10:32.406Z,97805.94
2022-10-28T12:11:47.497Z,97799.78
2022-10-28T12:12:58.335Z,97804.06
2022-10-28T12:14:23.062Z,97803.53
2022-10-28T12:15:24.859Z,97803.00
2022-10-28T12:16:49.379Z,97804.06
2022-10-28T12:18:00.205Z,97800.78
2022-10-28T12:19:02.067Z,97804.47
2022-10-28T12:20:08.577Z,97795.94
2022-10-28T12:21:18.759Z,97797.25
2022-10-28T12:22:40.813Z,97805.47
2022-10-28T12:23:43.241Z,97791.94
2022-10-28T12:24:46.336Z,97796.22
2022-10-28T12:25:51.678Z,97793.59
2022-10-28T12:26:58.187Z,97790.16
2022-10-28T12:28:29.297Z,97792.88
2022-10-28T12:29:37.659Z,97790.53
2022-10-28T12:30:42.458Z,97791.63
2022-10-28T12:31:48.024Z,97786.03
2022-10-28T12:32:59.762Z,97790.06
2022-10-28T12:34:05.287Z,97794.06
2022-10-28T12:35:27.422Z,97783.19
2022-10-28T12:36:38.897Z,97785.31
2022-10-28T12:37:47.709Z,97778.72
2022-10-28T12:38:50.774Z,97787.78
2022-10-28T12:40:21.579Z,97775.84
2022-10-28T12:41:23.427Z,97785.69
2022-10-28T12:42:32.244Z,97778.50
2022-10-28T12:43:43.301Z,97777.44
2022-10-28T12:44:47.733Z,97775.31
2022-10-28T12:45:55.932Z,97772.16
2022-10-28T12:47:16.686Z,97769.25
2022-10-28T12:48:33.655Z,97764.72